Time;durP1;ratioP1;P1;durP2;ratioP2;P2;SDS_P1;SDS_P2;PMS_P1;PMS_P2;Temp;Humidity;BMP_temperature;BMP_pressure;BME280_temperature;BME280_humidity;BME280_pressure;Samples;Min_cycle;Max_cycle;Signal;HPM_P1;HPM_P2
2022/09/13 00:01:57;;;;;;;10.90;7.47;;;;;;;15.37;44.65;99368.47;5033521;28;20504;-76
2022/09/13 00:04:23;;;;;;;13.32;7.68;;;;;;;15.30;44.90;99372.91;5017130;28;20056;-75
2022/09/13 00:06:49;;;;;;;12.18;7.22;;;;;;;15.31;44.74;99371.91;5017016;28;20876;-76
2022/09/13 00:09:15;;;;;;;9.57;7.40;;;;;;;15.30;44.81;99369.44;5017115;28;20047;-76
2022/09/13 00:11:41;;;;;;;9.20;6.90;;;;;;;15.34;44.84;99368.00;5033858;28;20044;-75
2022/09/13 00:14:08;;;;;;;13.48;7.10;;;;;;;15.33;44.92;99364.50;5017084;28;20068;-75
2022/09/13 00:16:33;;;;;;;12.02;7.53;;;;;;;15.32;44.87;99364.69;5067102;28;20102;-74
2022/09/13 00:19:00;;;;;;;13.60;7.40;;;;;;;15.36;44.84;99361.44;5033526;28;20049;-75
2022/09/13 00:21:26;;;;;;;9.27;7.05;;;;;;;15.33;44.82;99358.34;5066847;28;20048;-74
2022/09/13 00:23:53;;;;;;;11.40;7.57;;;;;;;15.41;44.88;99350.19;5050041;28;20072;-76
2022/09/13 00:26:26;;;;;;;11.27;6.80;;;;;;;15.57;44.57;99353.41;5049978;28;20106;-75
2022/09/13 00:28:54;;;;;;;11.38;7.75;;;;;;;15.48;44.77;99354.56;5033987;28;20052;-76
2022/09/13 00:31:22;;;;;;;12.73;7.40;;;;;;;15.40;45.01;99356.56;5033345;28;20503;-77
2022/09/13 00:33:49;;;;;;;13.70;7.15;;;;;;;15.37;44.90;99355.09;5066489;28;20055;-76
2022/09/13 00:36:15;;;;;;;9.02;6.70;;;;;;;15.32;44.98;99345.97;5066509;28;20044;-76
2022/09/13 00:38:42;;;;;;;16.40;7.20;;;;;;;15.39;44.86;99352.25;5049685;28;20412;-76
2022/09/13 00:41:12;;;;;;;11.18;7.00;;;;;;;15.46;44.90;99363.81;5033196;28;20066;-77
2022/09/13 00:43:43;;;;;;;11.57;6.82;;;;;;;15.53;44.69;99362.00;5017612;28;20048;-76
2022/09/13 00:46:14;;;;;;;14.00;6.80;;;;;;;15.51;44.61;99354.19;5038799;28;20045;-75
2022/09/13 00:48:39;;;;;;;11.02;7.00;;;;;;;15.36;44.68;99356.09;5052037;28;20129;-75
2022/09/13 00:51:07;;;;;;;10.95;6.65;;;;;;;15.38;44.95;99356.75;5033487;28;20599;-76
2022/09/13 00:53:45;;;;;;;12.00;6.70;;;;;;;15.36;44.96;99350.72;5048921;28;20575;-76
2022/09/13 00:56:42;;;;;;;11.38;6.68;;;;;;;15.44;44.88;99353.28;5066345;28;20127;-75
2022/09/13 00:59:12;;;;;;;10.93;6.18;;;;;;;15.31;45.11;99350.50;5066141;28;20482;-76
2022/09/13 01:01:52;;;;;;;10.35;6.75;;;;;;;15.36;45.01;99347.25;5065988;28;20519;-75
2022/09/13 01:04:20;;;;;;;16.50;6.60;;;;;;;15.30;44.95;99353.38;5032787;28;20078;-75
2022/09/13 01:06:49;;;;;;;17.70;8.40;;;;;;;15.29;44.91;99355.22;5033402;28;20084;-76
2022/09/13 01:09:15;;;;;;;9.75;6.72;;;;;;;15.06;45.42;99350.13;5032902;28;20037;-76
2022/09/13 01:12:11;;;;;;;11.23;6.60;;;;;;;15.27;45.13;99357.25;5014757;28;20036;-74
2022/09/13 01:14:37;;;;;;;10.48;6.47;;;;;;;15.09;45.63;99352.41;5047315;28;20140;-75
2022/09/13 01:17:03;;;;;;;12.43;6.60;;;;;;;15.01;45.45;99357.03;5030953;28;20044;-76
2022/09/13 01:19:29;;;;;;;11.88;6.43;;;;;;;14.99;45.78;99353.75;5030756;28;20480;-76
2022/09/13 01:22:14;;;;;;;12.85;6.22;;;;;;;15.22;45.34;99349.81;5014245;28;20045;-76
2022/09/13 01:25:18;;;;;;;8.95;6.32;;;;;;;15.27;45.26;99346.56;5063496;28;20143;-75
2022/09/13 01:28:05;;;;;;;9.60;6.30;;;;;;;15.17;45.39;99341.56;5032759;28;20500;-76
2022/09/13 01:30:57;;;;;;;10.68;6.22;;;;;;;15.04;45.75;99333.41;5036569;28;20507;-76
2022/09/13 01:34:07;;;;;;;8.55;6.88;;;;;;;14.93;46.05;99333.09;5052962;28;20040;-75
2022/09/13 01:36:41;;;;;;;10.20;6.53;;;;;;;14.96;46.07;99332.75;5044082;28;20048;-75
2022/09/13 01:39:17;;;;;;;10.95;6.38;;;;;;;14.97;46.07;99337.06;5036285;28;20036;-76
2022/09/13 01:41:46;;;;;;;9.95;6.18;;;;;;;14.80;45.97;99346.38;5052807;28;20044;-75
2022/09/13 01:44:38;;;;;;;12.57;6.32;;;;;;;15.03;45.75;99339.81;5033470;28;20798;-76
2022/09/13 01:47:24;;;;;;;10.02;6.40;;;;;;;15.01;45.85;99339.16;5035591;28;20140;-75
2022/09/13 01:50:17;;;;;;;11.38;6.55;;;;;;;14.91;46.12;99348.53;5035391;28;20147;-76
2022/09/13 01:52:56;;;;;;;8.52;5.80;;;;;;;14.84;46.14;99331.59;5035315;28;20114;-75
2022/09/13 01:55:36;;;;;;;12.45;6.57;;;;;;;14.87;46.29;99336.56;5018910;28;20478;-76
2022/09/13 01:58:29;;;;;;;9.88;6.47;;;;;;;14.84;46.35;99331.59;5051881;28;20052;-76
2022/09/13 02:01:07;;;;;;;9.95;6.10;;;;;;;14.80;46.43;99333.00;5035068;28;20536;-77
2022/09/13 02:03:42;;;;;;;11.52;6.70;;;;;;;14.75;46.58;99338.94;5035224;28;20451;-76
2022/09/13 02:06:11;;;;;;;11.68;6.30;;;;;;;14.70;46.78;99327.97;5035129;28;20098;-76
2022/09/13 02:08:59;;;;;;;9.63;6.50;;;;;;;14.77;46.47;99336.91;5034791;28;20509;-76
2022/09/13 02:11:25;;;;;;;12.60;5.90;;;;;;;14.47;47.01;99324.66;5035300;28;20037;-77
2022/09/13 02:14:07;;;;;;;19.98;7.00;;;;;;;14.68;46.55;99326.53;5035176;28;20524;-78
2022/09/13 02:16:38;;;;;;;11.48;6.57;;;;;;;14.59;47.14;99319.66;5051687;28;20069;-76
2022/09/13 02:19:14;;;;;;;11.35;6.63;;;;;;;14.63;46.81;99326.25;5035225;28;20132;-76
2022/09/13 02:21:43;;;;;;;12.73;6.30;;;;;;;14.52;47.13;99329.44;5051462;28;20045;-77
2022/09/13 02:24:22;;;;;;;12.75;7.03;;;;;;;14.58;46.88;99324.16;5034920;28;20041;-77
2022/09/13 02:26:51;;;;;;;14.60;7.28;;;;;;;14.47;47.23;99321.16;5051650;28;20041;-77
2022/09/13 02:29:18;;;;;;;8.30;6.35;;;;;;;14.46;47.23;99324.84;5051633;28;20049;-76
2022/09/13 02:31:56;;;;;;;12.40;6.53;;;;;;;14.44;47.26;99313.53;5034974;28;20056;-76
2022/09/13 02:34:25;;;;;;;12.48;6.60;;;;;;;14.29;47.53;99294.91;5002250;28;20460;-75
2022/09/13 02:36:52;;;;;;;14.48;6.50;;;;;;;14.38;47.49;99306.28;5018575;28;20139;-76
2022/09/13 02:39:21;;;;;;;7.43;5.68;;;;;;;14.42;47.37;99305.69;5034370;28;20041;-75
2022/09/13 02:41:51;;;;;;;12.27;6.95;;;;;;;14.37;47.49;99299.28;5035102;28;20045;-75
2022/09/13 02:44:36;;;;;;;10.57;6.63;;;;;;;14.48;47.39;99304.97;5018078;28;20095;-75
2022/09/13 02:47:10;;;;;;;15.93;6.55;;;;;;;14.47;47.39;99323.84;5034457;28;20279;-75
2022/09/13 02:49:50;;;;;;;10.70;6.63;;;;;;;14.53;47.26;99317.75;5034787;28;20057;-76
2022/09/13 02:52:23;;;;;;;10.52;6.45;;;;;;;14.51;47.15;99306.41;5050684;28;20055;-75
2022/09/13 02:55:15;;;;;;;14.95;7.05;;;;;;;14.54;47.20;99312.22;5034646;28;20056;-76
2022/09/13 02:57:50;;;;;;;10.70;6.10;;;;;;;14.51;47.26;99317.09;5034222;28;20043;-76
2022/09/13 03:00:16;;;;;;;10.52;6.55;;;;;;;14.24;47.40;99305.31;5050750;28;20045;-75
2022/09/13 03:02:42;;;;;;;14.45;6.93;;;;;;;14.30;47.53;99309.09;5050753;28;20072;-77
2022/09/13 03:05:10;;;;;;;10.40;6.60;;;;;;;14.13;47.68;99289.75;5031980;28;20063;-77
2022/09/13 03:07:38;;;;;;;11.70;6.75;;;;;;;14.18;47.77;99310.53;5015339;28;20065;-75
2022/09/13 03:10:08;;;;;;;20.13;7.22;;;;;;;14.31;47.78;99300.88;5016103;28;20231;-76
2022/09/13 03:13:10;;;;;;;11.30;6.65;;;;;;;14.44;47.46;99303.69;5015051;28;20044;-76
2022/09/13 03:15:49;;;;;;;10.63;6.65;;;;;;;14.40;47.64;99306.91;5048213;28;20077;-76
2022/09/13 03:18:43;;;;;;;10.07;6.28;;;;;;;14.42;47.70;99315.56;5031502;28;20139;-77
2022/09/13 03:22:08;;;;;;;11.30;6.75;;;;;;;14.41;47.46;99306.72;5033545;28;20076;-76
2022/09/13 03:24:53;;;;;;;;;;;;;;;14.46;47.37;99307.00;5021253;28;20103;-76
2022/09/13 03:27:27;;;;;;;12.02;6.20;;;;;;;14.42;47.35;99308.38;5050092;28;19920;-76
2022/09/13 03:30:11;;;;;;;9.00;6.32;;;;;;;14.41;47.38;99303.22;5017578;28;20143;-76
2022/09/13 03:32:59;;;;;;;14.70;8.35;;;;;;;14.47;47.24;99297.09;5016988;28;20037;-77
2022/09/13 03:35:51;;;;;;;11.25;6.97;;;;;;;14.45;47.21;99299.16;5050363;28;20037;-77
2022/09/13 03:38:30;;;;;;;8.40;6.10;;;;;;;14.42;47.46;99305.69;5033413;28;20462;-75
2022/09/13 03:41:22;;;;;;;14.45;6.75;;;;;;;14.54;47.28;99311.38;5033521;28;20523;-77
2022/09/13 03:43:50;;;;;;;10.85;6.18;;;;;;;14.49;47.34;99295.09;5049861;28;20049;-75
2022/09/13 03:46:26;;;;;;;11.75;6.55;;;;;;;14.36;47.52;99301.13;5034108;28;20049;-75
2022/09/13 03:48:53;;;;;;;12.75;6.15;;;;;;;14.44;47.38;99306.34;5035414;28;20053;-75
2022/09/13 03:51:19;;;;;;;11.23;6.55;;;;;;;14.34;47.18;99295.16;5033480;28;20080;-76
2022/09/13 03:53:48;;;;;;;9.80;6.03;;;;;;;14.54;47.54;99298.03;5033425;28;20465;-75
2022/09/13 03:56:19;;;;;;;9.45;6.25;;;;;;;14.59;47.10;99307.09;5049560;28;20052;-76
2022/09/13 03:58:46;;;;;;;8.55;5.63;;;;;;;14.41;47.24;99298.72;5049742;28;20132;-74
2022/09/13 04:01:12;;;;;;;12.77;6.40;;;;;;;14.19;47.60;99302.34;5049564;28;20416;-75
2022/09/13 04:03:40;;;;;;;12.65;6.55;;;;;;;14.39;47.45;99292.72;5032773;28;20044;-79
2022/09/13 04:06:06;;;;;;;11.52;6.60;;;;;;;14.43;47.10;99288.66;5032516;28;20505;-76
2022/09/13 04:08:32;;;;;;;8.50;6.50;;;;;;;14.41;46.97;99290.69;5049193;28;20057;-76
2022/09/13 04:10:58;;;;;;;10.85;6.75;;;;;;;14.49;46.94;99289.75;5016539;28;20068;-78
2022/09/13 04:13:25;;;;;;;15.48;6.82;;;;;;;14.54;46.83;99300.69;5033286;28;20049;-76
2022/09/13 04:15:51;;;;;;;8.88;6.05;;;;;;;14.57;46.56;99292.28;5016067;28;20094;-75
2022/09/13 04:18:17;;;;;;;15.15;6.97;;;;;;;14.63;46.69;99294.19;5032650;28;20045;-75
2022/09/13 04:20:44;;;;;;;10.73;6.70;;;;;;;14.66;46.51;99288.47;5016600;28;20049;-74
2022/09/13 04:23:10;;;;;;;10.15;6.75;;;;;;;14.76;46.21;99297.00;5032354;28;20113;-74
2022/09/13 04:25:39;;;;;;;10.23;7.18;;;;;;;14.89;46.50;99297.09;5032648;28;20056;-75
2022/09/13 04:28:05;;;;;;;12.48;7.18;;;;;;;14.78;46.30;99286.91;5032673;28;20132;-75
2022/09/13 04:30:31;;;;;;;13.73;7.47;;;;;;;14.75;46.23;99293.47;5040997;28;20048;-73
2022/09/13 04:32:58;;;;;;;11.30;7.03;;;;;;;14.74;46.26;99297.19;5018806;28;20063;-79
2022/09/13 04:35:25;;;;;;;10.00;6.32;;;;;;;14.87;46.24;99301.78;5018616;28;20052;-78
2022/09/13 04:37:54;;;;;;;8.80;6.32;;;;;;;15.00;45.97;99297.41;5034747;28;20052;-78
2022/09/13 04:40:21;;;;;;;10.00;6.95;;;;;;;14.86;46.01;99300.16;5051557;28;20051;-78
2022/09/13 04:42:47;;;;;;;11.57;6.60;;;;;;;14.93;45.72;99301.03;5068700;28;20062;-72
2022/09/13 04:45:13;;;;;;;13.48;7.40;;;;;;;15.03;45.66;99306.88;5018453;28;20048;-76
2022/09/13 04:47:39;;;;;;;12.85;6.72;;;;;;;15.10;45.50;99316.59;5034957;28;20131;-73
2022/09/13 04:50:06;;;;;;;10.93;6.20;;;;;;;15.09;45.37;99306.09;5018609;28;20190;-75
2022/09/13 04:52:32;;;;;;;13.48;6.68;;;;;;;15.10;45.31;99302.38;5017648;28;20135;-65
2022/09/13 04:55:00;;;;;;;12.77;6.85;;;;;;;15.09;45.10;99306.94;5051591;28;20051;-64
2022/09/13 04:57:27;;;;;;;16.17;6.38;;;;;;;15.21;45.21;99320.56;5034957;28;20040;-65
2022/09/13 04:59:53;;;;;;;13.25;6.72;;;;;;;15.11;45.25;99326.25;5068735;28;20131;-65
2022/09/13 05:02:19;;;;;;;12.75;6.50;;;;;;;15.07;45.10;99305.44;5033553;28;20147;-64
2022/09/13 05:04:44;;;;;;;10.18;7.07;;;;;;;15.22;45.04;99322.25;5035911;28;20609;-65
2022/09/13 05:07:10;;;;;;;11.57;6.53;;;;;;;15.29;44.99;99325.78;5036108;28;20139;-65
2022/09/13 05:09:36;;;;;;;10.13;6.55;;;;;;;15.11;45.30;99320.09;5053872;28;20048;-65
2022/09/13 05:12:02;;;;;;;11.60;6.60;;;;;;;15.17;45.11;99319.31;5020056;28;20075;-65
2022/09/13 05:14:28;;;;;;;14.57;6.63;;;;;;;15.03;45.26;99309.53;5037499;28;20040;-64
2022/09/13 05:16:54;;;;;;;16.35;6.68;;;;;;;15.17;45.10;99325.50;5021622;28;20051;-64
2022/09/13 05:19:19;;;;;;;13.20;7.43;;;;;;;15.20;44.97;99327.81;5055175;28;20574;-65
2022/09/13 05:21:45;;;;;;;12.15;6.55;;;;;;;15.18;45.19;99326.31;5021730;28;20048;-65
2022/09/13 05:24:11;;;;;;;10.98;6.70;;;;;;;15.04;45.58;99324.56;5054790;28;20053;-67
2022/09/13 05:26:37;;;;;;;9.27;6.80;;;;;;;15.11;45.30;99330.81;5037752;28;20158;-68
2022/09/13 05:29:03;;;;;;;13.80;6.07;;;;;;;15.06;45.52;99318.03;5037907;28;20074;-67
2022/09/13 05:31:34;;;;;;;14.07;6.90;;;;;;;15.18;45.51;99316.44;5038350;28;20044;-68
2022/09/13 05:34:05;;;;;;;8.82;6.55;;;;;;;15.35;45.42;99333.03;5038348;28;20066;-68
2022/09/13 05:36:32;;;;;;;11.90;6.80;;;;;;;15.22;45.19;99328.41;5037935;28;20037;-68
2022/09/13 05:38:58;;;;;;;11.20;6.40;;;;;;;15.32;45.11;99327.22;5038485;28;20036;-68
2022/09/13 05:41:23;;;;;;;12.45;6.75;;;;;;;15.30;45.02;99322.06;5037597;28;20051;-68
2022/09/13 05:43:49;;;;;;;15.13;6.90;;;;;;;15.32;45.13;99327.22;5037823;28;20048;-68
2022/09/13 05:46:17;;;;;;;11.43;6.72;;;;;;;15.58;44.77;99322.06;5037968;28;20052;-68
2022/09/13 05:48:43;;;;;;;8.85;6.65;;;;;;;15.65;44.41;99325.63;5037941;28;20098;-67
2022/09/13 05:51:12;;;;;;;10.07;6.82;;;;;;;15.77;44.27;99316.84;5054241;28;20044;-68
2022/09/13 05:53:39;;;;;;;15.32;6.68;;;;;;;15.85;43.98;99316.66;5053996;28;20139;-67
2022/09/13 05:56:07;;;;;;;16.17;6.95;;;;;;;15.91;43.83;99307.84;5037583;28;20044;-68
2022/09/13 05:58:34;;;;;;;14.57;7.22;;;;;;;15.99;43.76;99326.41;5054251;28;20566;-68
2022/09/13 06:01:02;;;;;;;12.05;6.72;;;;;;;16.01;43.62;99318.16;5053891;28;20034;-67
2022/09/13 06:03:28;;;;;;;11.18;6.88;;;;;;;16.03;43.50;99321.47;5054104;28;20412;-68
2022/09/13 06:05:55;;;;;;;12.30;6.70;;;;;;;16.19;43.50;99310.41;5054324;28;20040;-68
2022/09/13 06:08:26;;;;;;;15.13;7.03;;;;;;;16.27;43.35;99313.72;5037353;28;20064;-68
2022/09/13 06:10:54;;;;;;;9.88;6.55;;;;;;;16.35;43.14;99315.41;5071082;28;20048;-69
2022/09/13 06:13:20;;;;;;;12.52;6.05;;;;;;;16.31;43.04;99317.66;5036770;28;20041;-69
2022/09/13 06:15:46;;;;;;;19.90;6.60;;;;;;;16.34;43.08;99321.78;5036300;28;20138;-69
2022/09/13 06:18:11;;;;;;;15.43;7.65;;;;;;;16.42;42.83;99321.63;5070627;28;20167;-68
2022/09/13 06:20:37;;;;;;;10.90;6.68;;;;;;;16.44;42.66;99320.41;5053812;28;20060;-68
2022/09/13 06:23:06;;;;;;;13.38;7.25;;;;;;;16.52;42.78;99312.19;5036203;28;20238;-71
2022/09/13 06:25:31;;;;;;;11.95;6.95;;;;;;;16.58;42.50;99316.72;5020588;28;20066;-70
2022/09/13 06:27:57;;;;;;;12.80;7.68;;;;;;;16.58;41.97;99300.63;5037288;28;20051;-70
2022/09/13 06:30:23;;;;;;;14.55;7.60;;;;;;;16.57;42.21;99309.72;5037293;28;20040;-66
2022/09/13 06:32:49;;;;;;;15.68;7.05;;;;;;;16.60;42.23;99320.03;5036788;28;20488;-69
2022/09/13 06:35:15;;;;;;;13.48;6.75;;;;;;;16.61;42.14;99312.78;5020253;28;20566;-70
2022/09/13 06:37:41;;;;;;;12.73;6.35;;;;;;;16.62;42.17;99312.59;5036872;28;20111;-69
2022/09/13 06:40:08;;;;;;;11.73;6.60;;;;;;;16.60;42.50;99306.63;5070397;28;20206;-69
2022/09/13 06:42:35;;;;;;;17.05;6.60;;;;;;;16.68;42.37;99309.09;5020395;28;20428;-69
2022/09/13 06:45:02;;;;;;;19.83;7.32;;;;;;;16.64;42.44;99291.78;5021653;28;20047;-68
2022/09/13 06:47:31;;;;;;;15.57;7.47;;;;;;;16.69;41.94;99305.41;5053909;28;20036;-68
2022/09/13 06:49:59;;;;;;;19.17;7.75;;;;;;;16.80;42.11;99301.28;5037329;28;20132;-68
2022/09/13 06:52:26;;;;;;;13.98;7.05;;;;;;;16.84;41.80;99303.34;5052958;28;20044;-68
2022/09/13 06:54:53;;;;;;;15.85;7.82;;;;;;;17.02;41.61;99296.53;5036680;28;20037;-68
2022/09/13 06:57:19;;;;;;;15.75;7.10;;;;;;;17.16;41.25;99303.53;5035121;28;20044;-68
2022/09/13 06:59:45;;;;;;;21.67;6.10;;;;;;;17.32;40.98;99303.94;5034817;28;20166;-68
2022/09/13 07:02:13;;;;;;;14.02;6.70;;;;;;;17.41;40.13;99286.56;5034205;28;20143;-69
2022/09/13 07:04:39;;;;;;;14.63;6.63;;;;;;;17.72;39.85;99312.75;5032936;28;20128;-70
2022/09/13 07:07:04;;;;;;;12.85;6.47;;;;;;;17.90;39.43;99302.13;5033142;28;20143;-68
2022/09/13 07:09:30;;;;;;;9.70;6.45;;;;;;;18.10;38.85;99297.50;5033994;28;20041;-68
2022/09/13 07:11:56;;;;;;;10.38;5.88;;;;;;;18.34;38.34;99299.44;5034101;28;20062;-70
2022/09/13 07:14:24;;;;;;;9.15;5.70;;;;;;;18.62;38.08;99293.72;5018934;28;20064;-72
2022/09/13 07:16:50;;;;;;;17.70;5.40;;;;;;;18.80;37.45;99301.84;5052684;28;20127;-69
2022/09/13 07:19:19;;;;;;;10.40;5.38;;;;;;;19.29;36.47;99293.78;5035621;28;20036;-70
2022/09/13 07:21:45;;;;;;;11.25;5.38;;;;;;;19.70;35.69;99292.13;5034370;28;20102;-69
2022/09/13 07:24:11;;;;;;;7.55;4.85;;;;;;;20.18;34.55;99277.84;5018979;28;20044;-69
2022/09/13 07:26:37;;;;;;;10.52;4.85;;;;;;;21.07;33.43;99286.69;5067474;28;20044;-70
2022/09/13 07:29:05;;;;;;;11.70;4.72;;;;;;;22.46;31.13;99281.84;5034342;28;20119;-69
2022/09/13 07:31:34;;;;;;;8.82;4.65;;;;;;;23.57;29.22;99289.97;5033676;28;20101;-71
2022/09/13 07:34:02;;;;;;;8.15;4.68;;;;;;;24.36;27.69;99278.47;5050726;28;20071;-70
2022/09/13 07:36:29;;;;;;;10.68;4.70;;;;;;;25.21;25.98;99281.19;5067928;28;20040;-71
2022/09/13 07:38:57;;;;;;;7.45;4.25;;;;;;;25.44;25.71;99278.09;5032008;28;20115;-69
2022/09/13 07:41:27;;;;;;;8.43;4.50;;;;;;;26.12;25.06;99278.72;5033744;28;20040;-70
2022/09/13 07:43:53;;;;;;;13.03;4.37;;;;;;;26.40;24.36;99274.75;5050402;28;20496;-69
2022/09/13 07:46:21;;;;;;;9.18;4.65;;;;;;;27.09;23.13;99269.66;5034217;28;20127;-70
2022/09/13 07:48:48;;;;;;;13.85;4.90;;;;;;;27.81;22.75;99270.09;5031962;28;20040;-72
2022/09/13 07:51:14;;;;;;;8.25;4.43;;;;;;;28.26;22.06;99269.91;5050342;28;20048;-69
2022/09/13 07:53:41;;;;;;;9.38;4.38;;;;;;;28.77;21.04;99251.31;5016109;28;20090;-70
2022/09/13 07:56:13;;;;;;;7.78;4.28;;;;;;;29.56;20.03;99257.13;5035346;28;20067;-71
2022/09/13 07:58:40;;;;;;;8.95;4.07;;;;;;;30.11;19.64;99258.41;5046585;28;20048;-70
2022/09/13 08:01:20;;;;;;;10.63;4.68;;;;;;;29.99;19.55;99250.63;5039248;28;20032;-74
2022/09/13 08:03:58;;;;;;;11.00;5.03;;;;;;;29.67;19.79;99263.34;5061102;28;20159;-71
2022/09/13 08:06:26;;;;;;;12.40;4.82;;;;;;;28.71;20.41;99252.41;5031697;28;20741;-70
2022/09/13 08:08:51;;;;;;;12.10;4.85;;;;;;;28.10;21.19;99246.50;5031559;28;20078;-70
2022/09/13 08:11:24;;;;;;;9.65;4.97;;;;;;;27.93;21.33;99244.13;5031712;28;20140;-69
2022/09/13 08:13:52;;;;;;;12.07;5.22;;;;;;;28.04;21.10;99242.16;5030727;28;20151;-71
2022/09/13 08:16:20;;;;;;;8.05;5.43;;;;;;;28.73;20.61;99259.25;5043549;28;20471;-70
2022/09/13 08:18:51;;;;;;;12.38;4.10;;;;;;;29.13;19.85;99248.00;5033828;28;20036;-71
2022/09/13 08:21:19;;;;;;;8.50;4.25;;;;;;;29.56;19.59;99254.41;5034064;28;20056;-71
2022/09/13 08:23:45;;;;;;;12.45;4.50;;;;;;;29.89;18.86;99256.25;5048919;28;20081;-70
2022/09/13 08:26:11;;;;;;;9.43;4.50;;;;;;;30.32;18.38;99246.91;5018510;28;20121;-74
2022/09/13 08:28:40;;;;;;;10.43;4.60;;;;;;;30.44;18.20;99241.81;5051476;28;20048;-74
2022/09/13 08:31:09;;;;;;;7.93;3.78;;;;;;;29.68;19.14;99226.66;5051490;28;20051;-69
2022/09/13 08:33:35;;;;;;;12.05;3.63;;;;;;;29.07;19.35;99227.28;5067735;28;20534;-69
2022/09/13 08:36:03;;;;;;;12.48;4.13;;;;;;;28.54;20.01;99232.91;5034578;28;20139;-70
2022/09/13 08:38:30;;;;;;;6.25;3.55;;;;;;;28.10;20.57;99229.28;5033862;28;20040;-67
2022/09/13 08:41:01;;;;;;;10.48;4.13;;;;;;;27.60;21.02;99224.88;5051066;28;20037;-68
2022/09/13 08:43:48;;;;;;;4.63;3.35;;;;;;;26.88;21.70;99218.97;5034062;28;20044;-69
2022/09/13 08:46:24;;;;;;;7.30;3.78;;;;;;;26.52;22.23;99215.41;5034111;28;20150;-68
2022/09/13 08:48:52;;;;;;;5.93;3.45;;;;;;;25.66;23.51;99213.50;5051479;28;20083;-68
2022/09/13 08:51:29;;;;;;;6.03;3.65;;;;;;;25.50;23.48;99203.63;5034752;28;20137;-68
2022/09/13 08:53:56;;;;;;;13.23;3.42;;;;;;;24.94;23.92;99199.72;5034379;28;20142;-71
2022/09/13 08:56:28;;;;;;;6.00;3.53;;;;;;;24.69;24.42;99203.06;5034267;28;20437;-68
2022/09/13 08:59:03;;;;;;;6.78;3.10;;;;;;;24.35;24.91;99203.56;5051183;28;20040;-68
2022/09/13 09:01:37;;;;;;;7.53;3.42;;;;;;;23.58;25.68;99199.41;5034168;28;20943;-68
2022/09/13 09:04:18;;;;;;;8.02;3.30;;;;;;;23.73;25.70;99199.59;5017988;28;20055;-68
2022/09/13 09:06:43;;;;;;;8.15;3.28;;;;;;;23.22;26.19;99188.06;5050327;28;20041;-69
2022/09/13 09:09:15;;;;;;;6.07;3.20;;;;;;;23.25;26.52;99182.19;5017837;28;20044;-69
2022/09/13 09:11:49;;;;;;;3.00;2.38;;;;;;;22.77;26.80;99184.69;5033506;28;20052;-69
2022/09/13 09:14:50;;;;;;;5.93;2.42;;;;;;;23.02;26.78;99176.94;5032806;28;20052;-69
2022/09/13 09:17:24;;;;;;;7.28;2.85;;;;;;;23.12;26.83;99176.28;5012685;28;20037;-68
2022/09/13 09:20:31;;;;;;;5.85;2.60;;;;;;;22.66;27.25;99174.78;5031039;28;20053;-69
2022/09/13 09:23:06;;;;;;;4.50;2.42;;;;;;;22.29;27.65;99162.75;5063660;28;20084;-68
2022/09/13 09:25:33;;;;;;;6.43;2.90;;;;;;;21.97;28.42;99169.78;5030886;28;20131;-69
2022/09/13 09:27:59;;;;;;;11.20;2.53;;;;;;;21.35;29.23;99171.47;5014150;28;20037;-68
2022/09/13 09:30:36;;;;;;;4.93;2.70;;;;;;;21.61;29.09;99172.81;5030596;28;20056;-69
2022/09/13 09:33:29;;;;;;;8.65;3.05;;;;;;;21.49;28.69;99164.75;5031198;28;20052;-69
2022/09/13 09:36:04;;;;;;;6.72;1.70;;;;;;;20.54;28.84;99149.09;5047129;28;20715;-69
2022/09/13 09:38:41;;;;;;;6.22;2.10;;;;;;;20.50;29.36;99153.28;5029494;28;20049;-69
2022/09/13 09:41:39;;;;;;;4.30;1.40;;;;;;;20.02;29.33;99158.78;5014207;28;20052;-69
2022/09/13 09:44:16;;;;;;;7.88;1.65;;;;;;;20.11;28.99;99154.69;5030794;28;20139;-68
2022/09/13 09:46:43;;;;;;;7.88;1.52;;;;;;;20.03;28.92;99157.72;5031014;28;20512;-69
2022/09/13 09:50:08;;;;;;;4.72;1.48;;;;;;;20.17;29.14;99162.97;5049662;28;20037;-70
2022/09/13 09:52:05;;;;;;;3.95;1.50;;;;;;;20.17;29.25;99152.19;5053730;28;20081;-70
2022/09/13 09:54:33;;;;;;;1.80;1.27;;;;;;;19.79;29.78;99161.41;5035048;28;20063;-69
2022/09/13 09:57:00;;;;;;;3.03;1.35;;;;;;;19.14;30.55;99137.16;5051256;28;20041;-69
2022/09/13 09:59:32;;;;;;;6.47;1.30;;;;;;;19.22;30.82;99147.63;5050500;28;20045;-69
2022/09/13 10:02:00;;;;;;;6.53;1.50;;;;;;;19.56;30.79;99142.44;5050612;28;20040;-69
2022/09/13 10:04:27;;;;;;;2.58;1.27;;;;;;;19.71;30.25;99145.53;5051091;28;20251;-68
2022/09/13 10:07:34;;;;;;;3.47;1.50;;;;;;;19.50;30.22;99156.81;5017555;28;20048;-69
2022/09/13 10:10:30;;;;;;;3.78;1.60;;;;;;;19.82;30.51;99150.16;5018232;28;20090;-70
2022/09/13 10:12:56;;;;;;;7.60;1.52;;;;;;;19.66;30.35;99144.59;5028495;28;20049;-68
2022/09/13 10:15:31;;;;;;;3.95;1.85;;;;;;;19.76;30.65;99136.78;5034070;28;20090;-68
2022/09/13 10:18:08;;;;;;;3.75;1.65;;;;;;;19.93;30.52;99135.06;5050168;28;20121;-69
2022/09/13 10:20:34;;;;;;;4.80;1.50;;;;;;;19.74;30.45;99120.84;5061412;28;20041;-70
2022/09/13 10:23:10;;;;;;;5.70;1.27;;;;;;;19.51;30.89;99123.44;5042868;28;20076;-69
2022/09/13 10:25:38;;;;;;;2.60;1.40;;;;;;;19.18;31.00;99128.41;5036750;28;20101;-70
2022/09/13 10:28:14;;;;;;;1.90;1.33;;;;;;;19.52;31.15;99129.66;5020669;28;20051;-70
2022/09/13 10:30:53;;;;;;;2.33;1.60;;;;;;;19.79;30.70;99126.38;5037151;28;20040;-70
2022/09/13 10:34:03;;;;;;;9.25;1.40;;;;;;;19.77;31.00;99130.34;5054618;28;20051;-69
2022/09/13 10:36:34;;;;;;;6.05;1.63;;;;;;;19.94;30.63;99120.56;5023596;28;20094;-69
2022/09/13 10:39:05;;;;;;;3.97;1.70;;;;;;;19.64;31.28;99123.28;5053003;28;20136;-70
2022/09/13 10:41:38;;;;;;;4.30;1.50;;;;;;;19.78;30.61;99119.34;5053417;28;20068;-69
2022/09/13 10:44:09;;;;;;;2.47;1.50;;;;;;;19.80;30.99;99095.66;5020155;28;20139;-70
2022/09/13 10:46:38;;;;;;;3.05;1.65;;;;;;;19.83;30.99;99110.56;5020521;28;20090;-69
2022/09/13 10:49:08;;;;;;;3.03;1.95;;;;;;;19.86;31.23;99112.81;5015857;28;20131;-71
2022/09/13 10:51:36;;;;;;;4.30;1.45;;;;;;;19.92;30.73;99115.41;5016854;28;20079;-68
2022/09/13 10:54:14;;;;;;;13.15;1.65;;;;;;;20.00;31.06;99103.47;5049424;28;20041;-69
2022/09/13 10:56:42;;;;;;;6.85;2.15;;;;;;;19.82;30.95;99103.50;5041617;28;20037;-72
2022/09/13 10:59:28;;;;;;;5.25;1.60;;;;;;;19.99;31.28;99104.50;5050533;28;20140;-70
2022/09/13 11:02:10;;;;;;;9.73;1.88;;;;;;;19.87;30.77;99099.09;5048261;28;20578;-72
2022/09/13 11:05:07;;;;;;;6.10;2.13;;;;;;;19.90;30.87;99101.34;5032047;28;20036;-71
2022/09/13 11:08:02;;;;;;;9.05;1.70;;;;;;;20.03;30.90;99098.41;5032763;28;20061;-72
2022/09/13 11:10:45;;;;;;;4.68;1.25;;;;;;;19.89;30.77;99082.69;5047895;28;20064;-71
2022/09/13 11:13:31;;;;;;;3.88;1.70;;;;;;;19.85;30.84;99093.09;5034274;28;20592;-71
2022/09/13 11:16:24;;;;;;;6.95;1.83;;;;;;;19.87;30.75;99093.72;5050433;28;20128;-71
2022/09/13 11:19:02;;;;;;;7.60;1.52;;;;;;;19.69;31.07;99092.94;5065985;28;20155;-71
2022/09/13 11:21:32;;;;;;;11.82;2.08;;;;;;;19.69;31.26;99084.88;5050241;28;20084;-72
2022/09/13 11:24:17;;;;;;;5.78;1.60;;;;;;;19.88;30.89;99084.56;5048756;28;20040;-72
2022/09/13 11:27:09;;;;;;;8.10;1.98;;;;;;;19.89;30.90;99080.84;5032651;28;20408;-71
2022/09/13 11:29:47;;;;;;;3.72;1.70;;;;;;;19.95;30.62;99071.81;5016691;28;20048;-72
2022/09/13 11:32:27;;;;;;;8.20;1.98;;;;;;;19.81;30.70;99078.47;5056266;28;20051;-73
2022/09/13 11:34:53;;;;;;;;;;;;;;;20.02;30.47;99077.09;5089427;28;20062;-71
2022/09/13 11:37:26;;;;;;;6.85;1.98;;;;;;;19.99;30.75;99078.38;5055809;28;19920;-72
2022/09/13 11:40:18;;;;;;;10.57;2.30;;;;;;;19.71;30.79;99080.88;5055821;28;20047;-72
2022/09/13 11:42:53;;;;;;;6.28;1.85;;;;;;;19.45;31.27;99075.88;5071911;28;20090;-71
2022/09/13 11:45:21;;;;;;;7.35;1.77;;;;;;;19.09;31.61;99067.84;5089799;28;20512;-74
2022/09/13 11:48:17;;;;;;;9.57;2.00;;;;;;;19.35;31.34;99067.53;5072071;28;20036;-73
2022/09/13 11:51:03;;;;;;;8.38;1.50;;;;;;;19.42;31.38;99062.84;5088491;28;20075;-73
2022/09/13 11:53:32;;;;;;;14.50;3.20;;;;;;;19.44;31.30;99051.84;5058694;28;20589;-73
2022/09/13 11:56:09;;;;;;;5.03;1.70;;;;;;;19.29;31.29;99051.44;5068310;28;20066;-72